Time,TemperatureF,DewpointF,PressureIn,WindDirection,WindDirectionDegrees,WindSpeedMPH,WindSpeedGustMPH,Humidity,HourlyPrecipIn,Conditions,Clouds,dailyrainin,SoftwareType,DateUTC
2013-02-25 00:01:00,51.0,15.0,30.07,North,355,1.0,7.0,23,0.00,,,0.00,,2013-02-25 07:01:00,
2013-02-25 00:11:00,51.0,16.0,30.08,North,350,0.0,4.0,24,0.00,,,0.00,,2013-02-25 07:11:00,
2013-02-25 00:21:00,51.0,16.0,30.08,North,350,0.0,4.0,24,0.00,,,0.00,,2013-02-25 07:21:00,
2013-02-25 00:31:00,49.0,16.0,30.09,North,350,0.0,0.0,27,0.00,,,0.00,,2013-02-25 07:31:00,
2013-02-25 00:41:00,49.0,16.0,30.09,North,350,0.0,0.0,27,0.00,,,0.00,,2013-02-25 07:41:00,
2013-02-25 00:51:00,47.0,16.0,30.09,North,350,0.0,0.0,29,0.00,,,0.00,,2013-02-25 07:51:00,
2013-02-25 01:01:00,46.0,16.0,30.09,North,350,0.0,1.0,29,0.00,,,0.00,,2013-02-25 08:01:00,
2013-02-25 01:11:00,46.0,16.0,30.09,North,350,0.0,1.0,29,0.00,,,0.00,,2013-02-25 08:11:00,
2013-02-25 01:21:00,47.0,16.0,30.09,North,350,0.0,1.0,29,0.00,,,0.00,,2013-02-25 08:21:00,
2013-02-25 01:31:00,46.0,16.0,30.10,North,350,0.0,0.0,30,0.00,,,0.00,,2013-02-25 08:31:00,
2013-02-25 01:41:00,46.0,16.0,30.10,North,350,0.0,0.0,30,0.00,,,0.00,,2013-02-25 08:41:00,
2013-02-25 01:52:00,45.0,18.0,30.10,North,350,0.0,1.0,33,0.00,,,0.00,,2013-02-25 08:52:00,
2013-02-25 02:01:00,44.0,18.0,30.11,North,350,0.0,1.0,35,0.00,,,0.00,,2013-02-25 09:01:00,
2013-02-25 02:12:00,44.0,18.0,30.11,North,350,0.0,1.0,35,0.00,,,0.00,,2013-02-25 09:12:00,
2013-02-25 02:21:00,43.0,17.0,30.11,North,350,0.0,2.0,34,0.00,,,0.00,,2013-02-25 09:21:00,
2013-02-25 02:31:00,44.0,16.0,30.11,WNW,299,1.0,4.0,32,0.00,,,0.00,,2013-02-25 09:31:00,
2013-02-25 02:41:00,44.0,16.0,30.11,WNW,299,1.0,4.0,32,0.00,,,0.00,,2013-02-25 09:41:00,
2013-02-25 02:51:00,45.0,16.0,30.11,WNW,297,0.0,3.0,31,0.00,,,0.00,,2013-02-25 09:51:00,
2013-02-25 03:01:00,44.0,15.0,30.12,WNW,282,0.0,3.0,31,0.00,,,0.00,,2013-02-25 10:01:00,
2013-02-25 03:11:00,44.0,15.0,30.12,WNW,282,0.0,3.0,31,0.00,,,0.00,,2013-02-25 10:11:00,
2013-02-25 03:21:00,44.0,16.0,30.12,West,281,0.0,1.0,32,0.00,,,0.00,,2013-02-25 10:21:00,
2013-02-25 03:31:00,44.0,17.0,30.12,NW,324,0.0,3.0,33,0.00,,,0.00,,2013-02-25 10:31:00,
2013-02-25 03:41:00,44.0,17.0,30.12,NW,324,0.0,3.0,33,0.00,,,0.00,,2013-02-25 10:41:00,
2013-02-25 03:52:00,44.0,17.0,30.11,NW,324,0.0,1.0,34,0.00,,,0.00,,2013-02-25 10:52:00,
2013-02-25 04:01:00,42.0,18.0,30.11,NW,324,0.0,1.0,37,0.00,,,0.00,,2013-02-25 11:01:00,
2013-02-25 04:11:00,42.0,18.0,30.11,NW,324,0.0,1.0,37,0.00,,,0.00,,2013-02-25 11:11:00,
2013-02-25 04:21:00,41.0,19.0,30.12,NW,324,0.0,0.0,40,0.00,,,0.00,,2013-02-25 11:21:00,
2013-02-25 04:32:00,40.0,18.0,30.12,NW,324,0.0,0.0,41,0.00,,,0.00,,2013-02-25 11:32:00,
2013-02-25 04:42:00,40.0,18.0,30.12,NW,324,0.0,0.0,41,0.00,,,0.00,,2013-02-25 11:42:00,
2013-02-25 04:52:00,40.0,19.0,30.13,NW,324,0.0,0.0,42,0.00,,,0.00,,2013-02-25 11:52:00,
2013-02-25 05:01:00,39.0,18.0,30.14,NW,324,0.0,0.0,43,0.00,,,0.00,,2013-02-25 12:01:00,
2013-02-25 05:11:00,39.0,18.0,30.14,NW,324,0.0,0.0,43,0.00,,,0.00,,2013-02-25 12:11:00,
2013-02-25 05:21:00,39.0,18.0,30.14,NW,323,0.0,1.0,43,0.00,,,0.00,,2013-02-25 12:21:00,
2013-02-25 05:32:00,39.0,19.0,30.14,NW,323,0.0,1.0,44,0.00,,,0.00,,2013-02-25 12:32:00,
2013-02-25 05:41:00,39.0,19.0,30.14,NW,323,0.0,1.0,44,0.00,,,0.00,,2013-02-25 12:41:00,
2013-02-25 05:53:00,38.0,19.0,30.15,NW,323,0.0,0.0,46,0.00,,,0.00,,2013-02-25 12:53:00,
2013-02-25 06:01:00,38.0,21.0,30.15,NW,323,0.0,0.0,49,0.00,,,0.00,,2013-02-25 13:01:00,
2013-02-25 06:11:00,38.0,21.0,30.15,NW,323,0.0,0.0,49,0.00,,,0.00,,2013-02-25 13:11:00,
2013-02-25 06:21:00,37.0,21.0,30.15,NW,323,0.0,0.0,52,0.00,,,0.00,,2013-02-25 13:21:00,
2013-02-25 06:31:00,37.0,21.0,30.15,NW,323,0.0,1.0,51,0.00,,,0.00,,2013-02-25 13:31:00,
2013-02-25 06:41:00,37.0,21.0,30.15,NW,323,0.0,1.0,51,0.00,,,0.00,,2013-02-25 13:41:00,
2013-02-25 06:52:00,36.0,21.0,30.15,NW,323,0.0,0.0,53,0.00,,,0.00,,2013-02-25 13:52:00,
2013-02-25 07:02:00,35.0,20.0,30.17,NW,323,0.0,0.0,55,0.00,,,0.00,,2013-02-25 14:02:00,
2013-02-25 07:13:00,35.0,20.0,30.17,NW,323,0.0,0.0,55,0.00,,,0.00,,2013-02-25 14:13:00,
2013-02-25 07:21:00,35.0,21.0,30.17,NW,323,0.0,0.0,57,0.00,,,0.00,,2013-02-25 14:21:00,
2013-02-25 07:31:00,35.0,22.0,30.17,NW,323,0.0,0.0,58,0.00,,,0.00,,2013-02-25 14:31:00,
2013-02-25 07:41:00,35.0,22.0,30.17,NW,323,0.0,0.0,58,0.00,,,0.00,,2013-02-25 14:41:00,
2013-02-25 07:52:00,36.0,23.0,30.18,NW,323,0.0,0.0,59,0.00,,,0.00,,2013-02-25 14:52:00,
2013-02-25 08:02:00,37.0,23.0,30.19,NW,323,0.0,0.0,57,0.00,,,0.00,,2013-02-25 15:02:00,
2013-02-25 08:11:00,37.0,23.0,30.19,NW,323,0.0,0.0,57,0.00,,,0.00,,2013-02-25 15:11:00,
2013-02-25 08:21:00,40.0,25.0,30.19,NW,323,0.0,1.0,54,0.00,,,0.00,,2013-02-25 15:21:00,
2013-02-25 08:32:00,43.0,24.0,30.19,NW,323,0.0,2.0,47,0.00,,,0.00,,2013-02-25 15:32:00,
2013-02-25 08:41:00,43.0,24.0,30.19,NW,323,0.0,2.0,47,0.00,,,0.00,,2013-02-25 15:41:00,
2013-02-25 08:52:00,45.0,24.0,30.20,NW,323,0.0,1.0,43,0.00,,,0.00,,2013-02-25 15:52:00,
2013-02-25 09:01:00,48.0,25.0,30.21,NW,323,0.0,1.0,40,0.00,,,0.00,,2013-02-25 16:01:00,
2013-02-25 09:11:00,48.0,25.0,30.21,NW,323,0.0,1.0,40,0.00,,,0.00,,2013-02-25 16:11:00,
2013-02-25 09:21:00,49.0,23.0,30.21,NW,323,0.0,2.0,36,0.00,,,0.00,,2013-02-25 16:21:00,
2013-02-25 09:31:00,50.0,23.0,30.20,NW,323,0.0,2.0,34,0.00,,,0.00,,2013-02-25 16:31:00,
2013-02-25 09:41:00,50.0,23.0,30.20,NW,323,0.0,2.0,34,0.00,,,0.00,,2013-02-25 16:41:00,
2013-02-25 09:52:00,50.0,23.0,30.21,NW,322,1.0,3.0,34,0.00,,,0.00,,2013-02-25 16:52:00,
2013-02-25 10:01:00,52.0,23.0,30.19,NW,321,1.0,3.0,32,0.00,,,0.00,,2013-02-25 17:01:00,
2013-02-25 10:11:00,52.0,23.0,30.19,NW,321,1.0,3.0,32,0.00,,,0.00,,2013-02-25 17:11:00,
2013-02-25 10:21:00,52.0,22.0,30.19,NW,323,0.0,2.0,30,0.00,,,0.00,,2013-02-25 17:21:00,
2013-02-25 10:31:00,54.0,23.0,30.20,NW,321,0.0,2.0,30,0.00,,,0.00,,2013-02-25 17:31:00,
2013-02-25 10:41:00,54.0,23.0,30.20,NW,321,0.0,2.0,30,0.00,,,0.00,,2013-02-25 17:41:00,
2013-02-25 10:52:00,55.0,23.0,30.19,WNW,286,0.0,4.0,29,0.00,,,0.00,,2013-02-25 17:52:00,
2013-02-25 11:01:00,56.0,23.0,30.19,ESE,119,1.0,4.0,28,0.00,,,0.00,,2013-02-25 18:01:00,
2013-02-25 11:12:00,56.0,23.0,30.19,ESE,119,1.0,4.0,28,0.00,,,0.00,,2013-02-25 18:12:00,
2013-02-25 11:21:00,56.0,25.0,30.19,SE,131,1.0,4.0,30,0.00,,,0.00,,2013-02-25 18:21:00,
2013-02-25 11:32:00,57.0,22.0,30.18,ESE,102,1.0,3.0,25,0.00,,,0.00,,2013-02-25 18:32:00,
2013-02-25 11:41:00,57.0,22.0,30.18,ESE,102,1.0,3.0,25,0.00,,,0.00,,2013-02-25 18:41:00,
2013-02-25 11:52:00,57.0,21.0,30.18,SE,145,0.0,4.0,24,0.00,,,0.00,,2013-02-25 18:52:00,
2013-02-25 12:01:00,59.0,23.0,30.17,SSE,157,0.0,5.0,25,0.00,,,0.00,,2013-02-25 19:01:00,
2013-02-25 12:11:00,59.0,23.0,30.17,SSE,157,0.0,5.0,25,0.00,,,0.00,,2013-02-25 19:11:00,
2013-02-25 12:21:00,59.0,21.0,30.16,ESE,103,0.0,3.0,23,0.00,,,0.00,,2013-02-25 19:21:00,
2013-02-25 12:31:00,59.0,20.0,30.15,SSE,154,1.0,4.0,22,0.00,,,0.00,,2013-02-25 19:31:00,
2013-02-25 12:41:00,59.0,20.0,30.15,SSE,154,1.0,4.0,22,0.00,,,0.00,,2013-02-25 19:41:00,
2013-02-25 12:52:00,58.0,20.0,30.14,SSE,152,0.0,2.0,23,0.00,,,0.00,,2013-02-25 19:52:00,
2013-02-25 13:01:00,58.0,21.0,30.13,SE,130,0.0,3.0,24,0.00,,,0.00,,2013-02-25 20:01:00,
2013-02-25 13:11:00,58.0,21.0,30.13,SE,130,0.0,3.0,24,0.00,,,0.00,,2013-02-25 20:11:00,
2013-02-25 13:21:00,59.0,22.0,30.12,WNW,284,0.0,8.0,24,0.00,,,0.00,,2013-02-25 20:21:00,
2013-02-25 13:31:00,59.0,21.0,30.11,NNE,31,1.0,7.0,23,0.00,,,0.00,,2013-02-25 20:31:00,
2013-02-25 13:41:00,59.0,21.0,30.11,NNE,31,1.0,7.0,23,0.00,,,0.00,,2013-02-25 20:41:00,
2013-02-25 13:52:00,59.0,20.0,30.10,NNE,21,1.0,6.0,22,0.00,,,0.00,,2013-02-25 20:52:00,
2013-02-25 14:01:00,60.0,21.0,30.10,NE,40,0.0,2.0,22,0.00,,,0.00,,2013-02-25 21:01:00,
2013-02-25 14:11:00,60.0,21.0,30.10,NE,40,0.0,2.0,22,0.00,,,0.00,,2013-02-25 21:11:00,
2013-02-25 14:21:00,62.0,24.0,30.09,NE,47,0.0,2.0,23,0.00,,,0.00,,2013-02-25 21:21:00,
2013-02-25 14:31:00,62.0,24.0,30.09,WSW,246,0.0,3.0,23,0.00,,,0.00,,2013-02-25 21:31:00,
2013-02-25 14:41:00,62.0,24.0,30.09,WSW,246,0.0,3.0,23,0.00,,,0.00,,2013-02-25 21:41:00,
2013-02-25 14:52:00,62.0,24.0,30.08,WSW,254,0.0,4.0,23,0.00,,,0.00,,2013-02-25 21:52:00,
2013-02-25 15:01:00,62.0,23.0,30.08,South,188,0.0,5.0,22,0.00,,,0.00,,2013-02-25 22:01:00,
2013-02-25 15:11:00,62.0,23.0,30.08,South,188,0.0,5.0,22,0.00,,,0.00,,2013-02-25 22:11:00,
2013-02-25 15:21:00,62.0,20.0,30.07,WSW,238,0.0,2.0,20,0.00,,,0.00,,2013-02-25 22:21:00,
2013-02-25 15:31:00,62.0,20.0,30.07,South,175,0.0,4.0,20,0.00,,,0.00,,2013-02-25 22:31:00,
2013-02-25 15:41:00,62.0,20.0,30.07,South,175,0.0,4.0,20,0.00,,,0.00,,2013-02-25 22:41:00,
2013-02-25 15:52:00,63.0,24.0,30.06,South,175,0.0,5.0,22,0.00,,,0.00,,2013-02-25 22:52:00,
2013-02-25 16:01:00,62.0,19.0,30.06,WSW,243,0.0,2.0,19,0.00,,,0.00,,2013-02-25 23:01:00,
2013-02-25 16:11:00,62.0,19.0,30.06,WSW,243,0.0,2.0,19,0.00,,,0.00,,2013-02-25 23:11:00,
2013-02-25 16:22:00,64.0,21.0,30.06,West,266,0.0,5.0,19,0.00,,,0.00,,2013-02-25 23:22:00,
2013-02-25 16:31:00,64.0,22.0,30.05,West,266,0.0,1.0,20,0.00,,,0.00,,2013-02-25 23:31:00,
2013-02-25 16:41:00,64.0,22.0,30.05,West,266,0.0,1.0,20,0.00,,,0.00,,2013-02-25 23:41:00,
2013-02-25 16:52:00,63.0,21.0,30.05,SW,217,0.0,3.0,20,0.00,,,0.00,,2013-02-25 23:52:00,
2013-02-25 17:01:00,63.0,20.0,30.04,West,275,0.0,3.0,19,0.00,,,0.00,,2013-02-26 00:01:00,
2013-02-25 17:11:00,63.0,20.0,30.04,West,275,0.0,3.0,19,0.00,,,0.00,,2013-02-26 00:11:00,
2013-02-25 17:21:00,63.0,20.0,30.04,SW,221,0.0,2.0,19,0.00,,,0.00,,2013-02-26 00:21:00,
2013-02-25 17:32:00,63.0,19.0,30.03,West,279,0.0,5.0,18,0.00,,,0.00,,2013-02-26 00:32:00,
2013-02-25 17:41:00,63.0,19.0,30.03,West,279,0.0,5.0,18,0.00,,,0.00,,2013-02-26 00:41:00,
2013-02-25 17:52:00,62.0,20.0,30.04,West,271,0.0,2.0,20,0.00,,,0.00,,2013-02-26 00:52:00,
2013-02-25 18:01:00,60.0,18.0,30.03,West,261,0.0,5.0,19,0.00,,,0.00,,2013-02-26 01:01:00,
2013-02-25 18:11:00,60.0,18.0,30.03,West,261,0.0,5.0,19,0.00,,,0.00,,2013-02-26 01:11:00,
2013-02-25 18:21:00,59.0,18.0,30.03,West,277,0.0,2.0,20,0.00,,,0.00,,2013-02-26 01:21:00,
2013-02-25 18:31:00,58.0,18.0,30.03,West,277,0.0,0.0,21,0.00,,,0.00,,2013-02-26 01:31:00,
2013-02-25 18:41:00,58.0,18.0,30.03,West,277,0.0,0.0,21,0.00,,,0.00,,2013-02-26 01:41:00,
2013-02-25 18:52:00,57.0,20.0,30.02,West,276,0.0,0.0,23,0.00,,,0.00,,2013-02-26 01:52:00,
2013-02-25 19:01:00,56.0,20.0,30.02,West,276,0.0,0.0,24,0.00,,,0.00,,2013-02-26 02:01:00,
2013-02-25 19:11:00,56.0,20.0,30.02,West,276,0.0,0.0,24,0.00,,,0.00,,2013-02-26 02:11:00,
2013-02-25 19:21:00,55.0,20.0,30.02,West,277,0.0,0.0,25,0.00,,,0.00,,2013-02-26 02:21:00,
2013-02-25 19:31:00,54.0,21.0,30.02,West,276,0.0,0.0,27,0.00,,,0.00,,2013-02-26 02:31:00,
2013-02-25 19:41:00,54.0,21.0,30.02,West,276,0.0,0.0,27,0.00,,,0.00,,2013-02-26 02:41:00,
2013-02-25 19:52:00,53.0,22.0,30.02,West,276,0.0,0.0,30,0.00,,,0.00,,2013-02-26 02:52:00,
2013-02-25 20:01:00,52.0,24.0,30.02,West,276,0.0,0.0,33,0.00,,,0.00,,2013-02-26 03:01:00,
2013-02-25 20:11:00,52.0,24.0,30.02,West,276,0.0,0.0,33,0.00,,,0.00,,2013-02-26 03:11:00,
2013-02-25 20:21:00,50.0,25.0,30.01,West,276,0.0,0.0,37,0.00,,,0.00,,2013-02-26 03:21:00,
2013-02-25 20:31:00,49.0,23.0,30.01,West,276,0.0,0.0,36,0.00,,,0.00,,2013-02-26 03:31:00,
2013-02-25 20:41:00,49.0,23.0,30.01,West,276,0.0,0.0,36,0.00,,,0.00,,2013-02-26 03:41:00,
2013-02-25 20:52:00,48.0,24.0,30.01,West,276,0.0,0.0,38,0.00,,,0.00,,2013-02-26 03:52:00,
2013-02-25 21:01:00,48.0,24.0,30.01,West,276,0.0,0.0,39,0.00,,,0.00,,2013-02-26 04:01:00,
2013-02-25 21:11:00,48.0,24.0,30.01,West,276,0.0,0.0,39,0.00,,,0.00,,2013-02-26 04:11:00,
2013-02-25 21:21:00,47.0,23.0,30.00,West,276,0.0,0.0,39,0.00,,,0.00,,2013-02-26 04:21:00,
2013-02-25 21:31:00,46.0,25.0,30.01,West,276,0.0,0.0,44,0.00,,,0.00,,2013-02-26 04:31:00,
2013-02-25 21:42:00,46.0,25.0,30.01,West,276,0.0,0.0,44,0.00,,,0.00,,2013-02-26 04:42:00,
2013-02-25 21:52:00,46.0,25.0,30.00,West,276,0.0,0.0,44,0.00,,,0.00,,2013-02-26 04:52:00,
2013-02-25 22:01:00,45.0,27.0,30.01,West,277,0.0,0.0,48,0.00,,,0.00,,2013-02-26 05:01:00,
2013-02-25 22:11:00,45.0,27.0,30.01,West,277,0.0,0.0,48,0.00,,,0.00,,2013-02-26 05:11:00,
2013-02-25 22:21:00,44.0,26.0,30.02,West,276,0.0,0.0,48,0.00,,,0.00,,2013-02-26 05:21:00,
2013-02-25 22:31:00,44.0,27.0,30.01,West,276,0.0,0.0,51,0.00,,,0.00,,2013-02-26 05:31:00,
2013-02-25 22:42:00,44.0,27.0,30.01,West,276,0.0,0.0,51,0.00,,,0.00,,2013-02-26 05:42:00,
2013-02-25 22:52:00,44.0,26.0,30.01,West,276,0.0,0.0,49,0.00,,,0.00,,2013-02-26 05:52:00,
2013-02-25 23:01:00,43.0,27.0,30.01,West,276,0.0,0.0,52,0.00,,,0.00,,2013-02-26 06:01:00,
2013-02-25 23:11:00,43.0,27.0,30.01,West,276,0.0,0.0,52,0.00,,,0.00,,2013-02-26 06:11:00,
2013-02-25 23:21:00,43.0,27.0,30.02,West,276,0.0,0.0,53,0.00,,,0.00,,2013-02-26 06:21:00,
2013-02-25 23:31:00,42.0,26.0,30.01,West,276,0.0,0.0,53,0.00,,,0.00,,2013-02-26 06:31:00,
2013-02-25 23:41:00,42.0,26.0,30.01,West,276,0.0,0.0,53,0.00,,,0.00,,2013-02-26 06:41:00,
2013-02-25 23:52:00,42.0,27.0,30.02,West,277,0.0,0.0,55,0.00,,,0.00,,2013-02-26 06:52:00,